sensor_id;sensor_type;location;lat;lon;timestamp;temperature;humidity
68826;DHT22;55841;53.392;10.086;2022-10-26T00:02:08;10.30;89.70
68826;DHT22;55841;53.392;10.086;2022-10-26T00:04:34;10.20;89.80
68826;DHT22;55841;53.392;10.086;2022-10-26T00:06:59;10.20;89.80
68826;DHT22;55841;53.392;10.086;2022-10-26T00:09:25;10.20;89.80
68826;DHT22;55841;53.392;10.086;2022-10-26T00:11:51;10.20;89.60
68826;DHT22;55841;53.392;10.086;2022-10-26T00:14:17;10.20;89.40
68826;DHT22;55841;53.392;10.086;2022-10-26T00:16:42;10.10;89.30
68826;DHT22;55841;53.392;10.086;2022-10-26T00:19:08;10.10;89.30
68826;DHT22;55841;53.392;10.086;2022-10-26T00:21:33;10.10;89.20
68826;DHT22;55841;53.392;10.086;2022-10-26T00:23:59;10.10;89.30
68826;DHT22;55841;53.392;10.086;2022-10-26T00:26:25;10.00;88.90
68826;DHT22;55841;53.392;10.086;2022-10-26T00:28:54;10.00;88.90
68826;DHT22;55841;53.392;10.086;2022-10-26T00:31:20;10.00;89.00
68826;DHT22;55841;53.392;10.086;2022-10-26T00:33:45;9.90;89.20
68826;DHT22;55841;53.392;10.086;2022-10-26T00:36:11;9.90;89.20
68826;DHT22;55841;53.392;10.086;2022-10-26T00:38:37;9.90;89.40
68826;DHT22;55841;53.392;10.086;2022-10-26T00:41:02;9.90;89.50
68826;DHT22;55841;53.392;10.086;2022-10-26T00:45:55;9.80;89.70
68826;DHT22;55841;53.392;10.086;2022-10-26T00:48:35;9.80;89.80
68826;DHT22;55841;53.392;10.086;2022-10-26T00:51:05;9.80;89.70
68826;DHT22;55841;53.392;10.086;2022-10-26T00:53:32;9.80;89.40
68826;DHT22;55841;53.392;10.086;2022-10-26T00:55:58;9.70;89.20
68826;DHT22;55841;53.392;10.086;2022-10-26T00:58:25;9.70;89.30
68826;DHT22;55841;53.392;10.086;2022-10-26T01:00:51;9.70;89.30
68826;DHT22;55841;53.392;10.086;2022-10-26T01:03:18;9.60;89.30
68826;DHT22;55841;53.392;10.086;2022-10-26T01:05:45;9.60;89.30
68826;DHT22;55841;53.392;10.086;2022-10-26T01:08:12;9.50;89.50
68826;DHT22;55841;53.392;10.086;2022-10-26T01:10:38;9.50;89.50
68826;DHT22;55841;53.392;10.086;2022-10-26T01:13:04;9.50;89.40
68826;DHT22;55841;53.392;10.086;2022-10-26T01:18:34;9.40;89.00
68826;DHT22;55841;53.392;10.086;2022-10-26T01:29:49;9.30;88.50
68826;DHT22;55841;53.392;10.086;2022-10-26T01:32:29;9.20;88.50
68826;DHT22;55841;53.392;10.086;2022-10-26T01:35:09;9.20;88.60
68826;DHT22;55841;53.392;10.086;2022-10-26T01:37:45;9.20;88.60
68826;DHT22;55841;53.392;10.086;2022-10-26T01:40:24;9.20;88.40
68826;DHT22;55841;53.392;10.086;2022-10-26T01:42:52;9.20;88.20
68826;DHT22;55841;53.392;10.086;2022-10-26T01:45:19;9.10;88.10
68826;DHT22;55841;53.392;10.086;2022-10-26T01:47:46;9.10;87.90
68826;DHT22;55841;53.392;10.086;2022-10-26T01:50:12;9.10;88.00
68826;DHT22;55841;53.392;10.086;2022-10-26T01:52:39;9.00;88.20
68826;DHT22;55841;53.392;10.086;2022-10-26T01:55:40;9.00;88.20
68826;DHT22;55841;53.392;10.086;2022-10-26T02:09:33;8.80;87.80
68826;DHT22;55841;53.392;10.086;2022-10-26T02:12:04;8.70;87.90
68826;DHT22;55841;53.392;10.086;2022-10-26T02:14:49;8.70;88.10
68826;DHT22;55841;53.392;10.086;2022-10-26T02:17:28;8.70;88.00
68826;DHT22;55841;53.392;10.086;2022-10-26T02:24:55;8.60;88.10
68826;DHT22;55841;53.392;10.086;2022-10-26T02:27:25;8.70;88.40
68826;DHT22;55841;53.392;10.086;2022-10-26T02:29:54;8.60;88.60
68826;DHT22;55841;53.392;10.086;2022-10-26T02:32:22;8.60;88.60
68826;DHT22;55841;53.392;10.086;2022-10-26T02:34:50;8.60;88.40
68826;DHT22;55841;53.392;10.086;2022-10-26T02:37:18;8.60;88.50
68826;DHT22;55841;53.392;10.086;2022-10-26T02:39:48;8.50;88.40
68826;DHT22;55841;53.392;10.086;2022-10-26T02:42:15;8.50;88.10
68826;DHT22;55841;53.392;10.086;2022-10-26T02:44:54;8.50;88.30
68826;DHT22;55841;53.392;10.086;2022-10-26T02:47:20;8.50;88.40
68826;DHT22;55841;53.392;10.086;2022-10-26T02:49:46;8.40;88.40
68826;DHT22;55841;53.392;10.086;2022-10-26T02:52:33;8.40;88.50
68826;DHT22;55841;53.392;10.086;2022-10-26T02:55:08;8.40;88.50
68826;DHT22;55841;53.392;10.086;2022-10-26T02:57:37;8.40;88.30
68826;DHT22;55841;53.392;10.086;2022-10-26T03:00:03;8.40;88.10
68826;DHT22;55841;53.392;10.086;2022-10-26T03:02:29;8.30;88.20
68826;DHT22;55841;53.392;10.086;2022-10-26T03:04:55;8.30;88.20
68826;DHT22;55841;53.392;10.086;2022-10-26T03:07:22;8.30;88.20
68826;DHT22;55841;53.392;10.086;2022-10-26T03:09:48;8.30;88.00
68826;DHT22;55841;53.392;10.086;2022-10-26T03:12:13;8.30;87.90
68826;DHT22;55841;53.392;10.086;2022-10-26T03:14:39;8.20;87.90
68826;DHT22;55841;53.392;10.086;2022-10-26T03:17:04;8.20;87.80
68826;DHT22;55841;53.392;10.086;2022-10-26T03:19:30;8.20;87.80
68826;DHT22;55841;53.392;10.086;2022-10-26T03:21:55;8.20;87.80
68826;DHT22;55841;53.392;10.086;2022-10-26T03:24:21;8.20;88.00
68826;DHT22;55841;53.392;10.086;2022-10-26T03:26:46;8.20;88.10
68826;DHT22;55841;53.392;10.086;2022-10-26T03:29:12;8.20;88.20
68826;DHT22;55841;53.392;10.086;2022-10-26T03:31:37;8.20;88.00
68826;DHT22;55841;53.392;10.086;2022-10-26T03:34:03;8.10;87.80
68826;DHT22;55841;53.392;10.086;2022-10-26T03:36:28;8.10;88.00
68826;DHT22;55841;53.392;10.086;2022-10-26T03:38:53;8.10;88.00
68826;DHT22;55841;53.392;10.086;2022-10-26T03:41:19;8.10;88.10
68826;DHT22;55841;53.392;10.086;2022-10-26T03:43:44;8.10;88.00
68826;DHT22;55841;53.392;10.086;2022-10-26T03:46:10;8.10;87.90
68826;DHT22;55841;53.392;10.086;2022-10-26T03:48:35;8.00;87.90
68826;DHT22;55841;53.392;10.086;2022-10-26T03:51:01;8.00;87.90
68826;DHT22;55841;53.392;10.086;2022-10-26T03:53:26;8.00;87.90
68826;DHT22;55841;53.392;10.086;2022-10-26T03:55:52;8.00;88.00
68826;DHT22;55841;53.392;10.086;2022-10-26T03:58:17;7.90;87.90
68826;DHT22;55841;53.392;10.086;2022-10-26T04:00:43;7.90;88.10
68826;DHT22;55841;53.392;10.086;2022-10-26T04:03:08;7.90;88.30
68826;DHT22;55841;53.392;10.086;2022-10-26T04:05:34;7.90;88.40
68826;DHT22;55841;53.392;10.086;2022-10-26T04:08:00;7.90;88.20
68826;DHT22;55841;53.392;10.086;2022-10-26T04:10:26;7.90;87.90
68826;DHT22;55841;53.392;10.086;2022-10-26T04:12:53;7.80;87.90
68826;DHT22;55841;53.392;10.086;2022-10-26T04:15:18;7.80;88.10
68826;DHT22;55841;53.392;10.086;2022-10-26T04:17:44;7.80;87.90
68826;DHT22;55841;53.392;10.086;2022-10-26T04:20:10;7.80;87.90
68826;DHT22;55841;53.392;10.086;2022-10-26T04:22:36;7.80;88.00
68826;DHT22;55841;53.392;10.086;2022-10-26T04:25:05;7.80;88.10
68826;DHT22;55841;53.392;10.086;2022-10-26T04:27:31;7.70;88.00
68826;DHT22;55841;53.392;10.086;2022-10-26T04:29:57;7.70;88.20
68826;DHT22;55841;53.392;10.086;2022-10-26T04:32:22;7.70;88.20
68826;DHT22;55841;53.392;10.086;2022-10-26T04:34:48;7.70;88.20
68826;DHT22;55841;53.392;10.086;2022-10-26T04:37:13;7.70;88.10
68826;DHT22;55841;53.392;10.086;2022-10-26T04:39:39;7.70;87.90
68826;DHT22;55841;53.392;10.086;2022-10-26T04:42:04;7.70;88.00
68826;DHT22;55841;53.392;10.086;2022-10-26T04:44:30;7.70;88.00
68826;DHT22;55841;53.392;10.086;2022-10-26T04:46:56;7.70;88.10
68826;DHT22;55841;53.392;10.086;2022-10-26T04:49:21;7.70;88.10
68826;DHT22;55841;53.392;10.086;2022-10-26T04:51:47;7.60;88.20
68826;DHT22;55841;53.392;10.086;2022-10-26T04:54:12;7.70;88.30
68826;DHT22;55841;53.392;10.086;2022-10-26T04:56:38;7.60;88.20
68826;DHT22;55841;53.392;10.086;2022-10-26T04:59:03;7.60;88.10
68826;DHT22;55841;53.392;10.086;2022-10-26T05:01:30;7.60;88.20
68826;DHT22;55841;53.392;10.086;2022-10-26T05:03:55;7.60;88.50
68826;DHT22;55841;53.392;10.086;2022-10-26T05:06:21;7.60;88.60
68826;DHT22;55841;53.392;10.086;2022-10-26T05:08:46;7.60;88.90
68826;DHT22;55841;53.392;10.086;2022-10-26T05:11:12;7.60;88.90
68826;DHT22;55841;53.392;10.086;2022-10-26T05:13:38;7.50;88.60
68826;DHT22;55841;53.392;10.086;2022-10-26T05:16:04;7.50;89.00
68826;DHT22;55841;53.392;10.086;2022-10-26T05:18:29;7.40;89.20
68826;DHT22;55841;53.392;10.086;2022-10-26T05:20:55;7.40;89.50
68826;DHT22;55841;53.392;10.086;2022-10-26T05:23:21;7.40;89.90
68826;DHT22;55841;53.392;10.086;2022-10-26T05:25:47;7.50;90.00
68826;DHT22;55841;53.392;10.086;2022-10-26T05:28:13;7.50;90.00
68826;DHT22;55841;53.392;10.086;2022-10-26T05:30:44;7.50;90.00
68826;DHT22;55841;53.392;10.086;2022-10-26T05:33:10;7.50;89.90
68826;DHT22;55841;53.392;10.086;2022-10-26T05:35:37;7.50;89.70
68826;DHT22;55841;53.392;10.086;2022-10-26T05:38:07;7.50;89.90
68826;DHT22;55841;53.392;10.086;2022-10-26T05:40:32;7.40;89.80
68826;DHT22;55841;53.392;10.086;2022-10-26T05:42:59;7.40;90.00
68826;DHT22;55841;53.392;10.086;2022-10-26T05:45:25;7.40;90.00
68826;DHT22;55841;53.392;10.086;2022-10-26T05:47:50;7.40;89.90
68826;DHT22;55841;53.392;10.086;2022-10-26T05:50:16;7.40;90.00
68826;DHT22;55841;53.392;10.086;2022-10-26T05:52:43;7.30;90.30
68826;DHT22;55841;53.392;10.086;2022-10-26T05:55:11;7.30;90.40
68826;DHT22;55841;53.392;10.086;2022-10-26T05:57:38;7.30;90.40
68826;DHT22;55841;53.392;10.086;2022-10-26T06:05:22;7.30;90.70
68826;DHT22;55841;53.392;10.086;2022-10-26T06:07:49;7.30;90.70
68826;DHT22;55841;53.392;10.086;2022-10-26T06:10:15;7.30;90.60
68826;DHT22;55841;53.392;10.086;2022-10-26T06:12:41;7.30;90.50
68826;DHT22;55841;53.392;10.086;2022-10-26T06:15:10;7.30;90.40
68826;DHT22;55841;53.392;10.086;2022-10-26T06:30:22;7.20;90.30
68826;DHT22;55841;53.392;10.086;2022-10-26T06:32:49;-50.00;1.00
68826;DHT22;55841;53.392;10.086;2022-10-26T06:38:08;7.30;90.30
68826;DHT22;55841;53.392;10.086;2022-10-26T06:40:37;7.30;90.20
68826;DHT22;55841;53.392;10.086;2022-10-26T06:43:27;7.30;90.40
68826;DHT22;55841;53.392;10.086;2022-10-26T06:51:22;-50.00;1.00
68826;DHT22;55841;53.392;10.086;2022-10-26T06:57:58;7.40;90.60
68826;DHT22;55841;53.392;10.086;2022-10-26T07:04:54;7.50;90.70
68826;DHT22;55841;53.392;10.086;2022-10-26T07:08:20;7.60;90.70
68826;DHT22;55841;53.392;10.086;2022-10-26T07:10:54;7.60;91.00
68826;DHT22;55841;53.392;10.086;2022-10-26T07:13:20;7.70;91.10
68826;DHT22;55841;53.392;10.086;2022-10-26T07:15:45;7.70;91.10
68826;DHT22;55841;53.392;10.086;2022-10-26T07:18:11;7.80;91.20
68826;DHT22;55841;53.392;10.086;2022-10-26T07:31:26;8.10;91.20
68826;DHT22;55841;53.392;10.086;2022-10-26T07:47:57;-50.00;1.00
68826;DHT22;55841;53.392;10.086;2022-10-26T08:07:24;9.40;90.00
68826;DHT22;55841;53.392;10.086;2022-10-26T08:09:50;9.40;89.90
68826;DHT22;55841;53.392;10.086;2022-10-26T08:12:16;9.40;90.10
68826;DHT22;55841;53.392;10.086;2022-10-26T08:14:42;9.40;90.30
68826;DHT22;55841;53.392;10.086;2022-10-26T08:17:08;9.50;90.70
68826;DHT22;55841;53.392;10.086;2022-10-26T08:19:34;9.60;90.80
68826;DHT22;55841;53.392;10.086;2022-10-26T08:22:00;9.70;90.80
68826;DHT22;55841;53.392;10.086;2022-10-26T08:24:26;-50.00;1.00
68826;DHT22;55841;53.392;10.086;2022-10-26T08:26:52;-50.00;1.00
68826;DHT22;55841;53.392;10.086;2022-10-26T08:29:18;-50.00;1.00
68826;DHT22;55841;53.392;10.086;2022-10-26T08:31:46;-50.00;1.00
68826;DHT22;55841;53.392;10.086;2022-10-26T08:34:15;-50.00;1.00
68826;DHT22;55841;53.392;10.086;2022-10-26T08:36:41;-50.00;1.00
68826;DHT22;55841;53.392;10.086;2022-10-26T08:39:07;-50.00;1.00
68826;DHT22;55841;53.392;10.086;2022-10-26T08:41:41;-50.00;1.00
68826;DHT22;55841;53.392;10.086;2022-10-26T08:44:35;-50.00;1.00
68826;DHT22;55841;53.392;10.086;2022-10-26T08:47:09;-50.00;1.00
68826;DHT22;55841;53.392;10.086;2022-10-26T08:49:58;-50.00;1.00
68826;DHT22;55841;53.392;10.086;2022-10-26T08:52:32;11.60;89.90
68826;DHT22;55841;53.392;10.086;2022-10-26T08:55:02;-50.00;1.00
68826;DHT22;55841;53.392;10.086;2022-10-26T08:57:39;12.00;89.50
68826;DHT22;55841;53.392;10.086;2022-10-26T09:03:16;12.30;88.70
68826;DHT22;55841;53.392;10.086;2022-10-26T09:32:20;13.90;83.10
68826;DHT22;55841;53.392;10.086;2022-10-26T09:34:54;14.10;82.90
68826;DHT22;55841;53.392;10.086;2022-10-26T09:54:35;15.10;78.30
68826;DHT22;55841;53.392;10.086;2022-10-26T09:57:45;15.30;78.80
68826;DHT22;55841;53.392;10.086;2022-10-26T10:00:16;15.60;77.30
68826;DHT22;55841;53.392;10.086;2022-10-26T10:02:44;15.90;77.40
68826;DHT22;55841;53.392;10.086;2022-10-26T10:05:36;16.10;75.90
68826;DHT22;55841;53.392;10.086;2022-10-26T10:08:25;16.30;75.10
68826;DHT22;55841;53.392;10.086;2022-10-26T10:13:24;16.50;74.90
68826;DHT22;55841;53.392;10.086;2022-10-26T10:15:56;16.70;73.70
68826;DHT22;55841;53.392;10.086;2022-10-26T10:18:23;16.80;73.10
68826;DHT22;55841;53.392;10.086;2022-10-26T10:20:54;17.00;72.70
68826;DHT22;55841;53.392;10.086;2022-10-26T10:23:26;17.20;72.20
68826;DHT22;55841;53.392;10.086;2022-10-26T10:26:04;17.40;72.00
68826;DHT22;55841;53.392;10.086;2022-10-26T10:28:31;17.60;70.50
68826;DHT22;55841;53.392;10.086;2022-10-26T10:30:59;17.80;70.00
68826;DHT22;55841;53.392;10.086;2022-10-26T10:33:36;18.00;69.90
68826;DHT22;55841;53.392;10.086;2022-10-26T10:36:05;18.30;69.40
68826;DHT22;55841;53.392;10.086;2022-10-26T10:38:36;18.60;68.30
68826;DHT22;55841;53.392;10.086;2022-10-26T10:41:03;18.80;67.50
68826;DHT22;55841;53.392;10.086;2022-10-26T10:43:29;19.00;67.00
68826;DHT22;55841;53.392;10.086;2022-10-26T10:46:32;19.20;66.30
68826;DHT22;55841;53.392;10.086;2022-10-26T10:49:59;19.30;65.70
68826;DHT22;55841;53.392;10.086;2022-10-26T10:52:39;-50.00;1.00
68826;DHT22;55841;53.392;10.086;2022-10-26T11:00:47;20.10;63.30
68826;DHT22;55841;53.392;10.086;2022-10-26T11:03:32;-50.00;1.00
68826;DHT22;55841;53.392;10.086;2022-10-26T11:06:26;-50.00;1.00
68826;DHT22;55841;53.392;10.086;2022-10-26T11:09:04;-50.00;1.00
68826;DHT22;55841;53.392;10.086;2022-10-26T11:11:51;21.00;61.80
68826;DHT22;55841;53.392;10.086;2022-10-26T11:14:38;21.30;59.90
68826;DHT22;55841;53.392;10.086;2022-10-26T11:17:26;-50.00;1.00
68826;DHT22;55841;53.392;10.086;2022-10-26T11:25:32;-50.00;1.00
68826;DHT22;55841;53.392;10.086;2022-10-26T11:28:15;-50.00;1.00
68826;DHT22;55841;53.392;10.086;2022-10-26T11:30:54;-50.00;1.00
68826;DHT22;55841;53.392;10.086;2022-10-26T11:33:39;-50.00;1.00
68826;DHT22;55841;53.392;10.086;2022-10-26T11:36:26;22.30;57.90
68826;DHT22;55841;53.392;10.086;2022-10-26T11:39:19;-50.00;1.00
68826;DHT22;55841;53.392;10.086;2022-10-26T11:45:02;22.20;57.60
68826;DHT22;55841;53.392;10.086;2022-10-26T11:57:54;23.30;55.00
68826;DHT22;55841;53.392;10.086;2022-10-26T12:00:23;-50.00;1.00
68826;DHT22;55841;53.392;10.086;2022-10-26T12:03:00;23.80;53.30
68826;DHT22;55841;53.392;10.086;2022-10-26T12:05:44;-50.00;1.00
68826;DHT22;55841;53.392;10.086;2022-10-26T12:10:51;-50.00;1.00
68826;DHT22;55841;53.392;10.086;2022-10-26T12:13:25;-50.00;1.00
68826;DHT22;55841;53.392;10.086;2022-10-26T12:22:25;-50.00;1.00
68826;DHT22;55841;53.392;10.086;2022-10-26T12:38:25;25.30;49.40
68826;DHT22;55841;53.392;10.086;2022-10-26T12:40:42;-50.00;1.00
68826;DHT22;55841;53.392;10.086;2022-10-26T12:45:46;24.60;50.30
68826;DHT22;55841;53.392;10.086;2022-10-26T12:48:48;-50.00;1.00
68826;DHT22;55841;53.392;10.086;2022-10-26T12:56:58;24.60;52.10
68826;DHT22;55841;53.392;10.086;2022-10-26T12:59:57;24.70;51.30
68826;DHT22;55841;53.392;10.086;2022-10-26T13:02:35;24.60;51.90
68826;DHT22;55841;53.392;10.086;2022-10-26T13:22:26;24.10;53.50
68826;DHT22;55841;53.392;10.086;2022-10-26T13:42:26;21.20;60.80
68826;DHT22;55841;53.392;10.086;2022-10-26T13:44:56;21.20;60.50
68826;DHT22;55841;53.392;10.086;2022-10-26T13:47:40;-50.00;1.00
68826;DHT22;55841;53.392;10.086;2022-10-26T13:50:11;21.50;60.00
68826;DHT22;55841;53.392;10.086;2022-10-26T13:52:49;21.50;60.40
68826;DHT22;55841;53.392;10.086;2022-10-26T13:58:08;21.40;60.80
68826;DHT22;55841;53.392;10.086;2022-10-26T14:00:35;21.20;61.70
68826;DHT22;55841;53.392;10.086;2022-10-26T14:03:12;20.90;61.80
68826;DHT22;55841;53.392;10.086;2022-10-26T14:05:42;20.60;63.00
68826;DHT22;55841;53.392;10.086;2022-10-26T14:08:15;20.30;64.00
68826;DHT22;55841;53.392;10.086;2022-10-26T14:10:44;20.10;64.50
68826;DHT22;55841;53.392;10.086;2022-10-26T14:13:16;19.80;65.20
68826;DHT22;55841;53.392;10.086;2022-10-26T14:15:44;19.60;65.80
68826;DHT22;55841;53.392;10.086;2022-10-26T14:18:39;19.40;65.80
68826;DHT22;55841;53.392;10.086;2022-10-26T14:21:07;19.20;66.80
68826;DHT22;55841;53.392;10.086;2022-10-26T14:26:19;18.90;67.20
68826;DHT22;55841;53.392;10.086;2022-10-26T14:28:51;18.80;67.80
68826;DHT22;55841;53.392;10.086;2022-10-26T14:31:27;18.70;68.20
68826;DHT22;55841;53.392;10.086;2022-10-26T14:33:54;18.70;68.40
68826;DHT22;55841;53.392;10.086;2022-10-26T14:36:35;18.70;68.50
68826;DHT22;55841;53.392;10.086;2022-10-26T14:39:05;18.80;68.50
68826;DHT22;55841;53.392;10.086;2022-10-26T14:41:34;18.90;68.40
68826;DHT22;55841;53.392;10.086;2022-10-26T14:44:00;19.00;68.20
68826;DHT22;55841;53.392;10.086;2022-10-26T14:46:30;19.00;68.50
68826;DHT22;55841;53.392;10.086;2022-10-26T14:48:59;19.00;68.40
68826;DHT22;55841;53.392;10.086;2022-10-26T14:51:29;18.90;68.70
68826;DHT22;55841;53.392;10.086;2022-10-26T14:53:59;18.80;68.70
68826;DHT22;55841;53.392;10.086;2022-10-26T14:56:38;18.60;69.20
68826;DHT22;55841;53.392;10.086;2022-10-26T15:01:51;18.30;70.20
68826;DHT22;55841;53.392;10.086;2022-10-26T15:04:32;18.10;70.30
68826;DHT22;55841;53.392;10.086;2022-10-26T15:07:08;18.00;70.80
68826;DHT22;55841;53.392;10.086;2022-10-26T15:09:52;17.90;71.00
68826;DHT22;55841;53.392;10.086;2022-10-26T15:17:42;17.60;71.50
68826;DHT22;55841;53.392;10.086;2022-10-26T15:20:24;17.50;71.90
68826;DHT22;55841;53.392;10.086;2022-10-26T15:22:58;17.40;72.20
68826;DHT22;55841;53.392;10.086;2022-10-26T15:25:27;17.30;72.40
68826;DHT22;55841;53.392;10.086;2022-10-26T15:27:54;17.30;72.80
68826;DHT22;55841;53.392;10.086;2022-10-26T15:30:32;17.20;73.10
68826;DHT22;55841;53.392;10.086;2022-10-26T15:33:16;17.10;73.60
68826;DHT22;55841;53.392;10.086;2022-10-26T15:35:42;17.00;73.80
68826;DHT22;55841;53.392;10.086;2022-10-26T15:38:10;16.90;74.20
68826;DHT22;55841;53.392;10.086;2022-10-26T15:40:41;16.80;74.60
68826;DHT22;55841;53.392;10.086;2022-10-26T15:43:10;16.80;74.80
68826;DHT22;55841;53.392;10.086;2022-10-26T15:45:45;16.70;75.20
68826;DHT22;55841;53.392;10.086;2022-10-26T15:48:24;16.50;75.70
68826;DHT22;55841;53.392;10.086;2022-10-26T15:50:50;16.40;76.20
68826;DHT22;55841;53.392;10.086;2022-10-26T15:53:21;16.30;76.40
68826;DHT22;55841;53.392;10.086;2022-10-26T15:55:52;16.20;76.70
68826;DHT22;55841;53.392;10.086;2022-10-26T15:58:18;16.10;77.30
68826;DHT22;55841;53.392;10.086;2022-10-26T16:00:43;16.00;77.90
68826;DHT22;55841;53.392;10.086;2022-10-26T16:03:14;15.90;78.10
68826;DHT22;55841;53.392;10.086;2022-10-26T16:05:41;15.90;78.60
68826;DHT22;55841;53.392;10.086;2022-10-26T16:08:10;15.70;79.00
68826;DHT22;55841;53.392;10.086;2022-10-26T16:10:37;15.60;79.40
68826;DHT22;55841;53.392;10.086;2022-10-26T16:13:02;15.50;79.80
68826;DHT22;55841;53.392;10.086;2022-10-26T16:15:28;15.40;80.30
68826;DHT22;55841;53.392;10.086;2022-10-26T16:17:54;15.30;81.00
68826;DHT22;55841;53.392;10.086;2022-10-26T16:20:22;15.30;81.40
68826;DHT22;55841;53.392;10.086;2022-10-26T16:22:50;15.30;81.70
68826;DHT22;55841;53.392;10.086;2022-10-26T16:25:18;15.40;81.70
68826;DHT22;55841;53.392;10.086;2022-10-26T16:27:44;15.40;81.70
68826;DHT22;55841;53.392;10.086;2022-10-26T16:30:11;15.40;81.60
68826;DHT22;55841;53.392;10.086;2022-10-26T16:32:37;15.40;81.60
68826;DHT22;55841;53.392;10.086;2022-10-26T16:35:03;15.30;81.60
68826;DHT22;55841;53.392;10.086;2022-10-26T16:37:29;15.30;81.70
68826;DHT22;55841;53.392;10.086;2022-10-26T16:39:55;15.30;81.60
68826;DHT22;55841;53.392;10.086;2022-10-26T16:42:20;15.20;81.50
68826;DHT22;55841;53.392;10.086;2022-10-26T16:44:46;15.20;81.90
68826;DHT22;55841;53.392;10.086;2022-10-26T16:47:11;15.10;82.00
68826;DHT22;55841;53.392;10.086;2022-10-26T16:49:37;15.00;82.40
68826;DHT22;55841;53.392;10.086;2022-10-26T16:52:02;15.00;82.60
68826;DHT22;55841;53.392;10.086;2022-10-26T16:54:28;14.90;82.70
68826;DHT22;55841;53.392;10.086;2022-10-26T16:56:53;14.80;83.00
68826;DHT22;55841;53.392;10.086;2022-10-26T16:59:19;14.80;83.70
68826;DHT22;55841;53.392;10.086;2022-10-26T17:01:44;14.90;84.10
68826;DHT22;55841;53.392;10.086;2022-10-26T17:04:10;14.90;83.70
68826;DHT22;55841;53.392;10.086;2022-10-26T17:06:35;14.90;83.60
68826;DHT22;55841;53.392;10.086;2022-10-26T17:09:00;14.90;83.60
68826;DHT22;55841;53.392;10.086;2022-10-26T17:11:26;14.90;83.70
68826;DHT22;55841;53.392;10.086;2022-10-26T17:13:53;14.90;83.70
68826;DHT22;55841;53.392;10.086;2022-10-26T17:16:20;14.90;83.50
68826;DHT22;55841;53.392;10.086;2022-10-26T17:18:46;15.10;83.40
68826;DHT22;55841;53.392;10.086;2022-10-26T17:21:14;14.80;83.60
68826;DHT22;55841;53.392;10.086;2022-10-26T17:23:40;14.80;83.70
68826;DHT22;55841;53.392;10.086;2022-10-26T17:26:08;14.80;83.50
68826;DHT22;55841;53.392;10.086;2022-10-26T17:28:34;14.70;83.40
68826;DHT22;55841;53.392;10.086;2022-10-26T17:31:14;14.60;84.20
68826;DHT22;55841;53.392;10.086;2022-10-26T17:33:41;14.60;84.40
68826;DHT22;55841;53.392;10.086;2022-10-26T17:36:08;14.60;84.60
68826;DHT22;55841;53.392;10.086;2022-10-26T17:38:36;14.50;85.00
68826;DHT22;55841;53.392;10.086;2022-10-26T17:41:04;14.50;85.10
68826;DHT22;55841;53.392;10.086;2022-10-26T17:43:31;14.40;84.80
68826;DHT22;55841;53.392;10.086;2022-10-26T17:46:05;14.40;85.20
68826;DHT22;55841;53.392;10.086;2022-10-26T17:48:31;14.40;85.30
68826;DHT22;55841;53.392;10.086;2022-10-26T17:50:58;14.40;85.40
68826;DHT22;55841;53.392;10.086;2022-10-26T17:53:24;14.40;85.40
68826;DHT22;55841;53.392;10.086;2022-10-26T17:55:58;14.30;85.40
68826;DHT22;55841;53.392;10.086;2022-10-26T17:58:23;14.30;86.10
68826;DHT22;55841;53.392;10.086;2022-10-26T18:00:49;14.30;86.10
68826;DHT22;55841;53.392;10.086;2022-10-26T18:03:14;14.30;85.90
68826;DHT22;55841;53.392;10.086;2022-10-26T18:05:40;14.30;86.20
68826;DHT22;55841;53.392;10.086;2022-10-26T18:08:05;14.30;86.40
68826;DHT22;55841;53.392;10.086;2022-10-26T18:10:31;14.30;86.30
68826;DHT22;55841;53.392;10.086;2022-10-26T18:12:56;14.30;86.30
68826;DHT22;55841;53.392;10.086;2022-10-26T18:15:21;14.30;86.10
68826;DHT22;55841;53.392;10.086;2022-10-26T18:17:49;14.30;86.30
68826;DHT22;55841;53.392;10.086;2022-10-26T18:20:15;14.20;86.20
68826;DHT22;55841;53.392;10.086;2022-10-26T18:22:40;14.20;86.40
68826;DHT22;55841;53.392;10.086;2022-10-26T18:25:06;14.20;86.90
68826;DHT22;55841;53.392;10.086;2022-10-26T18:27:31;14.20;86.80
68826;DHT22;55841;53.392;10.086;2022-10-26T18:29:57;14.20;86.80
68826;DHT22;55841;53.392;10.086;2022-10-26T18:32:22;14.20;87.10
68826;DHT22;55841;53.392;10.086;2022-10-26T18:34:48;14.10;87.20
68826;DHT22;55841;53.392;10.086;2022-10-26T18:37:13;14.20;87.70
68826;DHT22;55841;53.392;10.086;2022-10-26T18:39:39;14.20;87.50
68826;DHT22;55841;53.392;10.086;2022-10-26T18:42:04;14.20;87.40
68826;DHT22;55841;53.392;10.086;2022-10-26T18:44:30;14.30;87.30
68826;DHT22;55841;53.392;10.086;2022-10-26T18:46:55;14.30;87.50
68826;DHT22;55841;53.392;10.086;2022-10-26T18:49:21;14.30;87.30
68826;DHT22;55841;53.392;10.086;2022-10-26T18:51:46;14.30;87.30
68826;DHT22;55841;53.392;10.086;2022-10-26T18:54:12;14.30;87.20
68826;DHT22;55841;53.392;10.086;2022-10-26T18:56:37;14.30;87.20
68826;DHT22;55841;53.392;10.086;2022-10-26T18:59:03;14.30;87.40
68826;DHT22;55841;53.392;10.086;2022-10-26T19:01:34;14.30;87.40
68826;DHT22;55841;53.392;10.086;2022-10-26T19:04:00;14.30;87.20
68826;DHT22;55841;53.392;10.086;2022-10-26T19:06:27;14.30;87.20
68826;DHT22;55841;53.392;10.086;2022-10-26T19:08:53;14.20;87.40
68826;DHT22;55841;53.392;10.086;2022-10-26T19:11:21;14.20;87.50
68826;DHT22;55841;53.392;10.086;2022-10-26T19:13:47;14.20;87.40
68826;DHT22;55841;53.392;10.086;2022-10-26T19:16:14;14.20;87.50
68826;DHT22;55841;53.392;10.086;2022-10-26T19:18:40;14.10;87.50
68826;DHT22;55841;53.392;10.086;2022-10-26T19:21:12;14.00;87.40
68826;DHT22;55841;53.392;10.086;2022-10-26T19:23:39;14.00;87.20
68826;DHT22;55841;53.392;10.086;2022-10-26T19:26:06;13.90;87.40
68826;DHT22;55841;53.392;10.086;2022-10-26T19:28:33;13.80;87.70
68826;DHT22;55841;53.392;10.086;2022-10-26T19:30:59;13.80;87.60
68826;DHT22;55841;53.392;10.086;2022-10-26T19:33:25;13.70;87.60
68826;DHT22;55841;53.392;10.086;2022-10-26T19:35:52;13.60;87.70
68826;DHT22;55841;53.392;10.086;2022-10-26T19:38:21;13.50;88.00
68826;DHT22;55841;53.392;10.086;2022-10-26T19:40:54;13.50;88.00
68826;DHT22;55841;53.392;10.086;2022-10-26T19:43:20;13.40;88.00
68826;DHT22;55841;53.392;10.086;2022-10-26T19:45:45;13.30;88.10
68826;DHT22;55841;53.392;10.086;2022-10-26T19:48:11;13.30;88.70
68826;DHT22;55841;53.392;10.086;2022-10-26T19:50:36;13.30;88.90
68826;DHT22;55841;53.392;10.086;2022-10-26T19:53:02;13.30;89.30
68826;DHT22;55841;53.392;10.086;2022-10-26T19:55:27;13.30;90.30
68826;DHT22;55841;53.392;10.086;2022-10-26T19:57:53;13.30;90.30
68826;DHT22;55841;53.392;10.086;2022-10-26T20:00:19;13.30;90.30